sensor_id;sensor_type;location;lat;lon;timestamp;temperature;humidity
18426;DHT22;9340;48.756;9.226;2023-04-25T00:00:35;8.20;99.90
18426;DHT22;9340;48.756;9.226;2023-04-25T00:03:02;8.10;99.90
18426;DHT22;9340;48.756;9.226;2023-04-25T00:05:30;8.10;99.90
18426;DHT22;9340;48.756;9.226;2023-04-25T00:07:58;8.10;99.90
18426;DHT22;9340;48.756;9.226;2023-04-25T00:10:25;8.20;99.90
18426;DHT22;9340;48.756;9.226;2023-04-25T00:12:52;8.10;99.90
18426;DHT22;9340;48.756;9.226;2023-04-25T00:15:19;8.10;99.90
18426;DHT22;9340;48.756;9.226;2023-04-25T00:17:45;8.20;99.90
18426;DHT22;9340;48.756;9.226;2023-04-25T00:20:12;8.20;99.90
18426;DHT22;9340;48.756;9.226;2023-04-25T00:22:39;8.10;99.90
18426;DHT22;9340;48.756;9.226;2023-04-25T00:25:08;8.20;99.90
18426;DHT22;9340;48.756;9.226;2023-04-25T00:27:34;8.10;99.90
18426;DHT22;9340;48.756;9.226;2023-04-25T00:30:02;8.10;99.90
18426;DHT22;9340;48.756;9.226;2023-04-25T00:32:29;8.10;99.90
18426;DHT22;9340;48.756;9.226;2023-04-25T00:34:55;8.10;99.90
18426;DHT22;9340;48.756;9.226;2023-04-25T00:37:23;8.10;99.90
18426;DHT22;9340;48.756;9.226;2023-04-25T00:39:50;8.10;99.90
18426;DHT22;9340;48.756;9.226;2023-04-25T00:42:20;8.10;99.90
18426;DHT22;9340;48.756;9.226;2023-04-25T00:44:47;8.00;99.90
18426;DHT22;9340;48.756;9.226;2023-04-25T00:47:15;8.10;99.90
18426;DHT22;9340;48.756;9.226;2023-04-25T00:49:42;8.00;99.90
18426;DHT22;9340;48.756;9.226;2023-04-25T00:52:09;8.00;99.90
18426;DHT22;9340;48.756;9.226;2023-04-25T00:54:36;8.10;99.90
18426;DHT22;9340;48.756;9.226;2023-04-25T00:57:03;8.10;99.90
18426;DHT22;9340;48.756;9.226;2023-04-25T00:59:31;8.10;99.90
18426;DHT22;9340;48.756;9.226;2023-04-25T01:01:58;8.00;99.90
18426;DHT22;9340;48.756;9.226;2023-04-25T01:04:26;8.10;99.90
18426;DHT22;9340;48.756;9.226;2023-04-25T01:06:55;8.10;99.90
18426;DHT22;9340;48.756;9.226;2023-04-25T01:09:22;8.10;99.90
18426;DHT22;9340;48.756;9.226;2023-04-25T01:11:49;8.20;99.90
18426;DHT22;9340;48.756;9.226;2023-04-25T01:14:16;8.10;99.90
18426;DHT22;9340;48.756;9.226;2023-04-25T01:16:44;8.20;99.90
18426;DHT22;9340;48.756;9.226;2023-04-25T01:19:11;8.10;99.90
18426;DHT22;9340;48.756;9.226;2023-04-25T01:21:39;8.20;99.90
18426;DHT22;9340;48.756;9.226;2023-04-25T01:24:07;8.20;99.90
18426;DHT22;9340;48.756;9.226;2023-04-25T01:26:35;8.20;99.90
18426;DHT22;9340;48.756;9.226;2023-04-25T01:29:03;8.20;99.90
18426;DHT22;9340;48.756;9.226;2023-04-25T01:31:32;8.30;99.90
18426;DHT22;9340;48.756;9.226;2023-04-25T01:33:58;8.30;99.90
18426;DHT22;9340;48.756;9.226;2023-04-25T01:36:25;8.40;99.90
18426;DHT22;9340;48.756;9.226;2023-04-25T01:38:53;8.40;99.90
18426;DHT22;9340;48.756;9.226;2023-04-25T01:41:20;8.40;99.90
18426;DHT22;9340;48.756;9.226;2023-04-25T01:43:48;8.40;99.90
18426;DHT22;9340;48.756;9.226;2023-04-25T01:46:15;8.30;99.90
18426;DHT22;9340;48.756;9.226;2023-04-25T01:48:42;8.20;99.90
18426;DHT22;9340;48.756;9.226;2023-04-25T01:51:09;8.20;99.90
18426;DHT22;9340;48.756;9.226;2023-04-25T01:53:37;8.10;99.90
18426;DHT22;9340;48.756;9.226;2023-04-25T01:56:06;8.00;99.90
18426;DHT22;9340;48.756;9.226;2023-04-25T01:58:32;8.10;99.90
18426;DHT22;9340;48.756;9.226;2023-04-25T02:00:59;8.00;99.90
18426;DHT22;9340;48.756;9.226;2023-04-25T02:03:26;8.10;99.90
18426;DHT22;9340;48.756;9.226;2023-04-25T02:05:52;8.20;99.90
18426;DHT22;9340;48.756;9.226;2023-04-25T02:08:19;8.20;99.90
18426;DHT22;9340;48.756;9.226;2023-04-25T02:10:46;8.30;99.90
18426;DHT22;9340;48.756;9.226;2023-04-25T02:13:14;8.20;99.90
18426;DHT22;9340;48.756;9.226;2023-04-25T02:15:40;8.10;99.90
18426;DHT22;9340;48.756;9.226;2023-04-25T02:18:07;8.10;99.90
18426;DHT22;9340;48.756;9.226;2023-04-25T02:20:36;8.10;99.90
18426;DHT22;9340;48.756;9.226;2023-04-25T02:23:02;8.20;99.90
18426;DHT22;9340;48.756;9.226;2023-04-25T02:25:29;8.20;99.90
18426;DHT22;9340;48.756;9.226;2023-04-25T02:27:56;8.20;99.90
18426;DHT22;9340;48.756;9.226;2023-04-25T02:30:24;8.20;99.90
18426;DHT22;9340;48.756;9.226;2023-04-25T02:32:51;8.10;99.90
18426;DHT22;9340;48.756;9.226;2023-04-25T02:35:17;8.10;99.90
18426;DHT22;9340;48.756;9.226;2023-04-25T02:37:45;8.10;99.90
18426;DHT22;9340;48.756;9.226;2023-04-25T02:40:11;8.10;99.90
18426;DHT22;9340;48.756;9.226;2023-04-25T02:42:38;8.00;99.90
18426;DHT22;9340;48.756;9.226;2023-04-25T02:45:06;8.00;99.90
18426;DHT22;9340;48.756;9.226;2023-04-25T02:47:34;8.00;99.90
18426;DHT22;9340;48.756;9.226;2023-04-25T02:50:00;8.00;99.90
18426;DHT22;9340;48.756;9.226;2023-04-25T02:52:27;8.00;99.90
18426;DHT22;9340;48.756;9.226;2023-04-25T02:54:54;7.90;99.90
18426;DHT22;9340;48.756;9.226;2023-04-25T02:57:21;7.90;99.90
18426;DHT22;9340;48.756;9.226;2023-04-25T02:59:47;7.80;99.90
18426;DHT22;9340;48.756;9.226;2023-04-25T03:02:14;7.80;99.90
18426;DHT22;9340;48.756;9.226;2023-04-25T03:04:42;7.70;99.90
18426;DHT22;9340;48.756;9.226;2023-04-25T03:07:10;7.60;99.90
18426;DHT22;9340;48.756;9.226;2023-04-25T03:09:37;7.60;99.90
18426;DHT22;9340;48.756;9.226;2023-04-25T03:12:04;7.60;99.90
18426;DHT22;9340;48.756;9.226;2023-04-25T03:14:30;7.70;99.90
18426;DHT22;9340;48.756;9.226;2023-04-25T03:16:57;7.70;99.90
18426;DHT22;9340;48.756;9.226;2023-04-25T03:19:24;7.70;99.90
18426;DHT22;9340;48.756;9.226;2023-04-25T03:21:52;7.70;99.90
18426;DHT22;9340;48.756;9.226;2023-04-25T03:24:19;7.70;99.90
18426;DHT22;9340;48.756;9.226;2023-04-25T03:26:45;7.80;99.90
18426;DHT22;9340;48.756;9.226;2023-04-25T03:29:12;7.80;99.90
18426;DHT22;9340;48.756;9.226;2023-04-25T03:31:39;7.90;99.90
18426;DHT22;9340;48.756;9.226;2023-04-25T03:34:05;7.80;99.90
18426;DHT22;9340;48.756;9.226;2023-04-25T03:36:32;7.80;99.90
18426;DHT22;9340;48.756;9.226;2023-04-25T03:39:00;7.70;99.90
18426;DHT22;9340;48.756;9.226;2023-04-25T03:41:27;7.60;99.90
18426;DHT22;9340;48.756;9.226;2023-04-25T03:43:55;7.50;99.90
18426;DHT22;9340;48.756;9.226;2023-04-25T03:46:21;7.40;99.90
18426;DHT22;9340;48.756;9.226;2023-04-25T03:48:48;7.30;99.90
18426;DHT22;9340;48.756;9.226;2023-04-25T03:51:15;7.20;99.90
18426;DHT22;9340;48.756;9.226;2023-04-25T03:53:41;7.20;99.90
18426;DHT22;9340;48.756;9.226;2023-04-25T03:56:09;7.30;99.90
18426;DHT22;9340;48.756;9.226;2023-04-25T03:58:36;7.30;99.90
18426;DHT22;9340;48.756;9.226;2023-04-25T04:01:03;7.30;99.90
18426;DHT22;9340;48.756;9.226;2023-04-25T04:03:33;7.30;99.90
18426;DHT22;9340;48.756;9.226;2023-04-25T04:06:00;7.30;99.90
18426;DHT22;9340;48.756;9.226;2023-04-25T04:08:26;7.30;99.90
18426;DHT22;9340;48.756;9.226;2023-04-25T04:10:53;7.10;99.90
18426;DHT22;9340;48.756;9.226;2023-04-25T04:13:21;7.00;99.90
18426;DHT22;9340;48.756;9.226;2023-04-25T04:15:48;6.90;99.90
18426;DHT22;9340;48.756;9.226;2023-04-25T04:18:14;6.90;99.90
18426;DHT22;9340;48.756;9.226;2023-04-25T04:20:41;6.90;99.90
18426;DHT22;9340;48.756;9.226;2023-04-25T04:23:08;6.90;99.90
18426;DHT22;9340;48.756;9.226;2023-04-25T04:25:34;6.90;99.90
18426;DHT22;9340;48.756;9.226;2023-04-25T04:28:02;7.00;99.90
18426;DHT22;9340;48.756;9.226;2023-04-25T04:30:30;7.00;99.90
18426;DHT22;9340;48.756;9.226;2023-04-25T04:32:57;7.00;99.90
18426;DHT22;9340;48.756;9.226;2023-04-25T04:35:24;7.10;99.90
18426;DHT22;9340;48.756;9.226;2023-04-25T04:37:51;7.30;99.90
18426;DHT22;9340;48.756;9.226;2023-04-25T04:40:17;7.40;99.90
18426;DHT22;9340;48.756;9.226;2023-04-25T04:42:44;7.40;99.90
18426;DHT22;9340;48.756;9.226;2023-04-25T04:45:11;7.50;99.90
18426;DHT22;9340;48.756;9.226;2023-04-25T04:47:40;7.50;99.90
18426;DHT22;9340;48.756;9.226;2023-04-25T04:50:07;7.70;99.90
18426;DHT22;9340;48.756;9.226;2023-04-25T04:52:35;7.90;99.90
18426;DHT22;9340;48.756;9.226;2023-04-25T04:55:02;8.10;99.90
18426;DHT22;9340;48.756;9.226;2023-04-25T04:57:28;8.20;99.90
18426;DHT22;9340;48.756;9.226;2023-04-25T04:59:56;8.30;99.90
18426;DHT22;9340;48.756;9.226;2023-04-25T05:02:23;8.40;99.90
18426;DHT22;9340;48.756;9.226;2023-04-25T05:04:51;8.40;99.90
18426;DHT22;9340;48.756;9.226;2023-04-25T05:07:18;8.40;99.90
18426;DHT22;9340;48.756;9.226;2023-04-25T05:09:44;8.40;99.90
18426;DHT22;9340;48.756;9.226;2023-04-25T05:12:11;8.40;99.90
18426;DHT22;9340;48.756;9.226;2023-04-25T05:14:38;8.40;99.90
18426;DHT22;9340;48.756;9.226;2023-04-25T05:17:04;8.40;99.90
18426;DHT22;9340;48.756;9.226;2023-04-25T05:19:33;8.40;99.90
18426;DHT22;9340;48.756;9.226;2023-04-25T05:22:01;8.50;99.90
18426;DHT22;9340;48.756;9.226;2023-04-25T05:24:28;8.60;99.90
18426;DHT22;9340;48.756;9.226;2023-04-25T05:26:55;8.90;99.90
18426;DHT22;9340;48.756;9.226;2023-04-25T05:29:22;9.10;99.90
18426;DHT22;9340;48.756;9.226;2023-04-25T05:31:49;9.40;99.90
18426;DHT22;9340;48.756;9.226;2023-04-25T05:34:16;9.60;99.90
18426;DHT22;9340;48.756;9.226;2023-04-25T05:36:43;9.70;99.90
18426;DHT22;9340;48.756;9.226;2023-04-25T05:39:11;9.70;99.90
18426;DHT22;9340;48.756;9.226;2023-04-25T05:41:37;9.80;99.90
18426;DHT22;9340;48.756;9.226;2023-04-25T05:44:05;9.90;99.90
18426;DHT22;9340;48.756;9.226;2023-04-25T05:46:31;9.90;99.90
18426;DHT22;9340;48.756;9.226;2023-04-25T05:48:58;10.20;99.90
18426;DHT22;9340;48.756;9.226;2023-04-25T05:51:25;10.50;99.90
18426;DHT22;9340;48.756;9.226;2023-04-25T05:53:53;10.70;99.90
18426;DHT22;9340;48.756;9.226;2023-04-25T05:56:21;10.90;99.90
18426;DHT22;9340;48.756;9.226;2023-04-25T05:58:48;11.00;99.90
18426;DHT22;9340;48.756;9.226;2023-04-25T06:01:14;11.00;99.90
18426;DHT22;9340;48.756;9.226;2023-04-25T06:03:41;10.90;99.90
18426;DHT22;9340;48.756;9.226;2023-04-25T06:06:08;10.80;99.90
18426;DHT22;9340;48.756;9.226;2023-04-25T06:08:35;10.70;99.90
18426;DHT22;9340;48.756;9.226;2023-04-25T06:11:03;10.60;99.90
18426;DHT22;9340;48.756;9.226;2023-04-25T06:13:31;10.50;99.90
18426;DHT22;9340;48.756;9.226;2023-04-25T06:15:57;10.50;99.90
18426;DHT22;9340;48.756;9.226;2023-04-25T06:18:24;10.40;99.90
18426;DHT22;9340;48.756;9.226;2023-04-25T06:20:51;10.30;99.90
18426;DHT22;9340;48.756;9.226;2023-04-25T06:23:17;10.30;99.90
18426;DHT22;9340;48.756;9.226;2023-04-25T06:25:44;10.30;99.90
18426;DHT22;9340;48.756;9.226;2023-04-25T06:28:11;10.40;99.90
18426;DHT22;9340;48.756;9.226;2023-04-25T06:30:39;10.50;99.90
18426;DHT22;9340;48.756;9.226;2023-04-25T06:33:05;10.60;99.90
18426;DHT22;9340;48.756;9.226;2023-04-25T06:35:33;10.70;99.90
18426;DHT22;9340;48.756;9.226;2023-04-25T06:38:00;10.80;99.90
18426;DHT22;9340;48.756;9.226;2023-04-25T06:40:27;10.90;99.90
18426;DHT22;9340;48.756;9.226;2023-04-25T06:42:54;10.90;99.90
18426;DHT22;9340;48.756;9.226;2023-04-25T06:45:21;11.00;99.90
18426;DHT22;9340;48.756;9.226;2023-04-25T06:47:49;11.00;99.90
18426;DHT22;9340;48.756;9.226;2023-04-25T06:50:15;11.00;99.90
18426;DHT22;9340;48.756;9.226;2023-04-25T06:52:42;11.00;99.90
18426;DHT22;9340;48.756;9.226;2023-04-25T06:55:09;10.80;99.90
18426;DHT22;9340;48.756;9.226;2023-04-25T06:57:36;10.70;99.90
18426;DHT22;9340;48.756;9.226;2023-04-25T07:00:03;10.80;99.90
18426;DHT22;9340;48.756;9.226;2023-04-25T07:02:34;10.80;99.90
18426;DHT22;9340;48.756;9.226;2023-04-25T07:05:02;10.70;99.90
18426;DHT22;9340;48.756;9.226;2023-04-25T07:07:29;10.70;99.90
18426;DHT22;9340;48.756;9.226;2023-04-25T07:09:56;10.60;99.90
18426;DHT22;9340;48.756;9.226;2023-04-25T07:12:22;10.60;99.90
18426;DHT22;9340;48.756;9.226;2023-04-25T07:14:49;10.70;99.90
18426;DHT22;9340;48.756;9.226;2023-04-25T07:17:16;10.70;99.90
18426;DHT22;9340;48.756;9.226;2023-04-25T07:19:42;10.70;99.90
18426;DHT22;9340;48.756;9.226;2023-04-25T07:22:11;10.70;99.90
18426;DHT22;9340;48.756;9.226;2023-04-25T07:24:38;10.60;99.90
18426;DHT22;9340;48.756;9.226;2023-04-25T07:27:05;10.60;99.90
18426;DHT22;9340;48.756;9.226;2023-04-25T07:29:34;10.60;99.90
18426;DHT22;9340;48.756;9.226;2023-04-25T07:32:02;10.70;99.90
18426;DHT22;9340;48.756;9.226;2023-04-25T07:34:29;10.70;99.90
18426;DHT22;9340;48.756;9.226;2023-04-25T07:36:57;10.60;99.90
18426;DHT22;9340;48.756;9.226;2023-04-25T07:39:26;10.70;99.90
18426;DHT22;9340;48.756;9.226;2023-04-25T07:41:53;10.70;99.90
18426;DHT22;9340;48.756;9.226;2023-04-25T07:44:20;10.70;99.90
18426;DHT22;9340;48.756;9.226;2023-04-25T07:46:47;10.80;99.90
18426;DHT22;9340;48.756;9.226;2023-04-25T07:49:13;10.90;99.90
18426;DHT22;9340;48.756;9.226;2023-04-25T07:51:40;10.90;99.90
18426;DHT22;9340;48.756;9.226;2023-04-25T07:54:08;11.00;99.90
18426;DHT22;9340;48.756;9.226;2023-04-25T07:56:36;11.00;99.90
18426;DHT22;9340;48.756;9.226;2023-04-25T07:59:03;10.90;99.90
18426;DHT22;9340;48.756;9.226;2023-04-25T08:01:30;11.00;99.90
18426;DHT22;9340;48.756;9.226;2023-04-25T08:03:57;10.80;99.90
18426;DHT22;9340;48.756;9.226;2023-04-25T08:06:24;10.70;99.90
18426;DHT22;9340;48.756;9.226;2023-04-25T08:08:50;10.60;99.90
18426;DHT22;9340;48.756;9.226;2023-04-25T08:11:17;10.60;99.90
18426;DHT22;9340;48.756;9.226;2023-04-25T08:13:45;10.60;99.90
18426;DHT22;9340;48.756;9.226;2023-04-25T08:16:11;10.60;99.90
18426;DHT22;9340;48.756;9.226;2023-04-25T08:18:38;10.50;99.90
18426;DHT22;9340;48.756;9.226;2023-04-25T08:21:05;10.50;99.90
18426;DHT22;9340;48.756;9.226;2023-04-25T08:23:34;10.50;99.90
18426;DHT22;9340;48.756;9.226;2023-04-25T08:26:00;10.60;99.90
18426;DHT22;9340;48.756;9.226;2023-04-25T08:28:27;10.60;99.90
18426;DHT22;9340;48.756;9.226;2023-04-25T08:30:56;10.70;99.90
18426;DHT22;9340;48.756;9.226;2023-04-25T08:33:23;10.80;99.90
18426;DHT22;9340;48.756;9.226;2023-04-25T08:35:49;10.80;99.90
18426;DHT22;9340;48.756;9.226;2023-04-25T08:38:17;10.80;99.90
18426;DHT22;9340;48.756;9.226;2023-04-25T08:40:49;10.90;99.90
18426;DHT22;9340;48.756;9.226;2023-04-25T08:43:18;10.90;99.90
18426;DHT22;9340;48.756;9.226;2023-04-25T08:45:46;11.00;99.90
18426;DHT22;9340;48.756;9.226;2023-04-25T08:48:16;11.10;99.90
18426;DHT22;9340;48.756;9.226;2023-04-25T08:50:46;11.20;99.90
18426;DHT22;9340;48.756;9.226;2023-04-25T08:53:17;11.20;99.90
18426;DHT22;9340;48.756;9.226;2023-04-25T08:55:46;11.10;99.90
18426;DHT22;9340;48.756;9.226;2023-04-25T08:58:14;11.10;99.90
18426;DHT22;9340;48.756;9.226;2023-04-25T09:00:41;11.00;99.90
18426;DHT22;9340;48.756;9.226;2023-04-25T09:03:08;10.90;99.90
18426;DHT22;9340;48.756;9.226;2023-04-25T09:05:36;10.80;99.90
18426;DHT22;9340;48.756;9.226;2023-04-25T09:08:03;10.50;99.90
18426;DHT22;9340;48.756;9.226;2023-04-25T09:10:30;10.40;99.90
18426;DHT22;9340;48.756;9.226;2023-04-25T09:13:02;10.40;99.90
18426;DHT22;9340;48.756;9.226;2023-04-25T09:15:30;10.30;99.90
18426;DHT22;9340;48.756;9.226;2023-04-25T09:17:57;10.10;99.90
18426;DHT22;9340;48.756;9.226;2023-04-25T09:20:24;9.90;99.90
18426;DHT22;9340;48.756;9.226;2023-04-25T09:23:03;9.80;99.90
18426;DHT22;9340;48.756;9.226;2023-04-25T09:25:34;10.00;99.90
18426;DHT22;9340;48.756;9.226;2023-04-25T09:28:04;10.10;99.90
18426;DHT22;9340;48.756;9.226;2023-04-25T09:30:32;10.20;99.90
18426;DHT22;9340;48.756;9.226;2023-04-25T09:33:04;10.40;99.90
18426;DHT22;9340;48.756;9.226;2023-04-25T09:35:35;10.50;99.90
18426;DHT22;9340;48.756;9.226;2023-04-25T09:38:09;10.50;99.90
18426;DHT22;9340;48.756;9.226;2023-04-25T09:40:39;10.50;99.90
18426;DHT22;9340;48.756;9.226;2023-04-25T09:43:09;10.40;99.90
18426;DHT22;9340;48.756;9.226;2023-04-25T09:45:41;10.50;99.90
18426;DHT22;9340;48.756;9.226;2023-04-25T09:48:11;10.60;99.90
18426;DHT22;9340;48.756;9.226;2023-04-25T09:50:38;10.40;99.90
18426;DHT22;9340;48.756;9.226;2023-04-25T09:53:05;10.40;99.90
18426;DHT22;9340;48.756;9.226;2023-04-25T09:55:34;10.50;99.90
18426;DHT22;9340;48.756;9.226;2023-04-25T09:58:05;10.50;99.90
18426;DHT22;9340;48.756;9.226;2023-04-25T10:00:33;10.40;99.90
18426;DHT22;9340;48.756;9.226;2023-04-25T10:03:01;10.40;99.90
18426;DHT22;9340;48.756;9.226;2023-04-25T10:05:32;10.20;99.90
18426;DHT22;9340;48.756;9.226;2023-04-25T10:08:02;10.10;99.90
18426;DHT22;9340;48.756;9.226;2023-04-25T10:10:29;9.90;99.90
18426;DHT22;9340;48.756;9.226;2023-04-25T10:13:03;9.90;99.90
18426;DHT22;9340;48.756;9.226;2023-04-25T10:15:31;9.90;99.90
18426;DHT22;9340;48.756;9.226;2023-04-25T10:17:58;10.00;99.90
18426;DHT22;9340;48.756;9.226;2023-04-25T10:20:25;10.00;99.90
18426;DHT22;9340;48.756;9.226;2023-04-25T10:22:54;9.90;99.90
18426;DHT22;9340;48.756;9.226;2023-04-25T10:25:22;9.80;99.90
18426;DHT22;9340;48.756;9.226;2023-04-25T10:27:50;9.50;99.90
18426;DHT22;9340;48.756;9.226;2023-04-25T10:30:18;9.20;99.90
18426;DHT22;9340;48.756;9.226;2023-04-25T10:32:47;9.00;99.90
18426;DHT22;9340;48.756;9.226;2023-04-25T10:35:17;8.90;99.90
18426;DHT22;9340;48.756;9.226;2023-04-25T10:37:58;9.00;99.90
18426;DHT22;9340;48.756;9.226;2023-04-25T10:40:25;8.70;99.90
18426;DHT22;9340;48.756;9.226;2023-04-25T10:42:52;8.60;99.90
18426;DHT22;9340;48.756;9.226;2023-04-25T10:45:21;8.60;99.90
18426;DHT22;9340;48.756;9.226;2023-04-25T10:47:47;8.50;99.90
18426;DHT22;9340;48.756;9.226;2023-04-25T10:50:15;8.40;99.90
18426;DHT22;9340;48.756;9.226;2023-04-25T10:52:41;8.30;99.90
18426;DHT22;9340;48.756;9.226;2023-04-25T10:55:08;8.30;99.90
18426;DHT22;9340;48.756;9.226;2023-04-25T10:57:40;8.50;99.90
18426;DHT22;9340;48.756;9.226;2023-04-25T11:00:10;8.90;99.90
18426;DHT22;9340;48.756;9.226;2023-04-25T11:02:40;9.20;99.90
18426;DHT22;9340;48.756;9.226;2023-04-25T11:05:08;9.00;99.90
18426;DHT22;9340;48.756;9.226;2023-04-25T11:07:38;8.90;99.90
18426;DHT22;9340;48.756;9.226;2023-04-25T11:10:10;9.10;99.90
18426;DHT22;9340;48.756;9.226;2023-04-25T11:12:36;9.30;99.90
18426;DHT22;9340;48.756;9.226;2023-04-25T11:15:04;9.30;99.90
18426;DHT22;9340;48.756;9.226;2023-04-25T11:17:32;9.30;99.90
18426;DHT22;9340;48.756;9.226;2023-04-25T11:20:00;9.50;99.90
18426;DHT22;9340;48.756;9.226;2023-04-25T11:22:27;9.70;99.90
18426;DHT22;9340;48.756;9.226;2023-04-25T11:24:55;10.00;99.90
18426;DHT22;9340;48.756;9.226;2023-04-25T11:27:22;10.30;99.90
18426;DHT22;9340;48.756;9.226;2023-04-25T11:29:50;10.30;99.90
18426;DHT22;9340;48.756;9.226;2023-04-25T11:32:17;10.10;99.90
18426;DHT22;9340;48.756;9.226;2023-04-25T11:34:44;10.40;99.90
18426;DHT22;9340;48.756;9.226;2023-04-25T11:37:13;10.60;99.90
18426;DHT22;9340;48.756;9.226;2023-04-25T11:39:43;10.80;99.90
18426;DHT22;9340;48.756;9.226;2023-04-25T11:42:11;10.80;99.90
18426;DHT22;9340;48.756;9.226;2023-04-25T11:44:38;11.00;99.90
18426;DHT22;9340;48.756;9.226;2023-04-25T11:47:06;10.90;99.90
18426;DHT22;9340;48.756;9.226;2023-04-25T11:49:32;10.80;99.90
18426;DHT22;9340;48.756;9.226;2023-04-25T11:52:00;11.00;99.90
18426;DHT22;9340;48.756;9.226;2023-04-25T11:54:28;11.40;99.90
18426;DHT22;9340;48.756;9.226;2023-04-25T11:56:55;11.70;99.90
18426;DHT22;9340;48.756;9.226;2023-04-25T11:59:24;11.90;99.90
18426;DHT22;9340;48.756;9.226;2023-04-25T12:01:51;12.10;99.90
18426;DHT22;9340;48.756;9.226;2023-04-25T12:04:19;12.20;99.90
18426;DHT22;9340;48.756;9.226;2023-04-25T12:06:48;12.20;99.90
18426;DHT22;9340;48.756;9.226;2023-04-25T12:09:16;12.30;99.90
18426;DHT22;9340;48.756;9.226;2023-04-25T12:11:46;12.40;99.90
18426;DHT22;9340;48.756;9.226;2023-04-25T12:14:21;12.50;99.90
18426;DHT22;9340;48.756;9.226;2023-04-25T12:16:49;12.60;99.90
18426;DHT22;9340;48.756;9.226;2023-04-25T12:19:17;12.80;99.90
18426;DHT22;9340;48.756;9.226;2023-04-25T12:21:44;12.90;99.90
18426;DHT22;9340;48.756;9.226;2023-04-25T12:24:13;13.00;99.90
18426;DHT22;9340;48.756;9.226;2023-04-25T12:26:52;13.20;99.90
18426;DHT22;9340;48.756;9.226;2023-04-25T12:29:22;13.10;99.90
18426;DHT22;9340;48.756;9.226;2023-04-25T12:31:50;12.80;99.90
18426;DHT22;9340;48.756;9.226;2023-04-25T12:34:17;12.60;99.90
18426;DHT22;9340;48.756;9.226;2023-04-25T12:36:44;12.50;99.90
18426;DHT22;9340;48.756;9.226;2023-04-25T12:39:17;12.40;99.90
18426;DHT22;9340;48.756;9.226;2023-04-25T12:41:44;12.30;99.90
18426;DHT22;9340;48.756;9.226;2023-04-25T12:44:13;12.20;99.90
18426;DHT22;9340;48.756;9.226;2023-04-25T12:46:40;12.30;99.90
18426;DHT22;9340;48.756;9.226;2023-04-25T12:49:08;12.00;99.90
18426;DHT22;9340;48.756;9.226;2023-04-25T12:51:35;12.10;99.90
18426;DHT22;9340;48.756;9.226;2023-04-25T12:54:02;12.20;99.90
18426;DHT22;9340;48.756;9.226;2023-04-25T12:56:30;12.40;99.90
18426;DHT22;9340;48.756;9.226;2023-04-25T12:58:56;12.50;99.90
18426;DHT22;9340;48.756;9.226;2023-04-25T13:01:25;12.90;99.90
18426;DHT22;9340;48.756;9.226;2023-04-25T13:03:52;13.40;99.90
18426;DHT22;9340;48.756;9.226;2023-04-25T13:06:20;13.70;99.90
18426;DHT22;9340;48.756;9.226;2023-04-25T13:08:46;14.00;99.90
18426;DHT22;9340;48.756;9.226;2023-04-25T13:11:13;14.30;99.90
18426;DHT22;9340;48.756;9.226;2023-04-25T13:13:41;14.40;99.90
18426;DHT22;9340;48.756;9.226;2023-04-25T13:16:08;14.50;99.90
18426;DHT22;9340;48.756;9.226;2023-04-25T13:18:36;14.80;99.90
18426;DHT22;9340;48.756;9.226;2023-04-25T13:21:03;15.00;99.90
18426;DHT22;9340;48.756;9.226;2023-04-25T13:23:30;15.10;99.90
18426;DHT22;9340;48.756;9.226;2023-04-25T13:25:57;15.20;99.90
18426;DHT22;9340;48.756;9.226;2023-04-25T13:28:24;15.00;99.90
18426;DHT22;9340;48.756;9.226;2023-04-25T13:30:50;14.80;99.90
18426;DHT22;9340;48.756;9.226;2023-04-25T13:33:17;14.80;99.90
18426;DHT22;9340;48.756;9.226;2023-04-25T13:35:46;14.60;99.90
18426;DHT22;9340;48.756;9.226;2023-04-25T13:38:19;14.50;99.90
18426;DHT22;9340;48.756;9.226;2023-04-25T13:40:46;14.40;99.90
18426;DHT22;9340;48.756;9.226;2023-04-25T13:43:12;14.40;99.90
18426;DHT22;9340;48.756;9.226;2023-04-25T13:45:39;14.30;99.90
18426;DHT22;9340;48.756;9.226;2023-04-25T13:48:06;14.00;99.90
18426;DHT22;9340;48.756;9.226;2023-04-25T13:50:33;14.00;99.90
18426;DHT22;9340;48.756;9.226;2023-04-25T13:53:01;14.30;99.90
18426;DHT22;9340;48.756;9.226;2023-04-25T13:55:27;14.50;99.90
18426;DHT22;9340;48.756;9.226;2023-04-25T13:57:54;14.70;99.90
18426;DHT22;9340;48.756;9.226;2023-04-25T14:00:21;14.50;99.90
18426;DHT22;9340;48.756;9.226;2023-04-25T14:02:48;14.30;99.90
18426;DHT22;9340;48.756;9.226;2023-04-25T14:05:14;14.10;99.90
18426;DHT22;9340;48.756;9.226;2023-04-25T14:07:41;13.70;99.90
18426;DHT22;9340;48.756;9.226;2023-04-25T14:10:10;13.70;99.90
18426;DHT22;9340;48.756;9.226;2023-04-25T14:12:36;13.90;99.90
18426;DHT22;9340;48.756;9.226;2023-04-25T14:15:04;13.80;99.90
18426;DHT22;9340;48.756;9.226;2023-04-25T14:17:31;13.60;99.90
18426;DHT22;9340;48.756;9.226;2023-04-25T14:19:57;13.60;99.90
18426;DHT22;9340;48.756;9.226;2023-04-25T14:22:24;13.50;99.90
18426;DHT22;9340;48.756;9.226;2023-04-25T14:24:51;13.70;99.90
18426;DHT22;9340;48.756;9.226;2023-04-25T14:27:19;13.80;99.90
18426;DHT22;9340;48.756;9.226;2023-04-25T14:29:46;13.80;99.90
18426;DHT22;9340;48.756;9.226;2023-04-25T14:32:13;13.90;99.90
18426;DHT22;9340;48.756;9.226;2023-04-25T14:34:39;14.20;99.90
18426;DHT22;9340;48.756;9.226;2023-04-25T14:37:06;14.20;99.90
18426;DHT22;9340;48.756;9.226;2023-04-25T14:39:33;14.30;99.90
18426;DHT22;9340;48.756;9.226;2023-04-25T14:41:59;14.20;99.90
18426;DHT22;9340;48.756;9.226;2023-04-25T14:44:28;14.20;99.90
18426;DHT22;9340;48.756;9.226;2023-04-25T14:46:55;14.30;99.90
18426;DHT22;9340;48.756;9.226;2023-04-25T14:49:22;14.40;99.90
18426;DHT22;9340;48.756;9.226;2023-04-25T14:51:49;14.30;99.90
18426;DHT22;9340;48.756;9.226;2023-04-25T14:54:16;14.00;99.90
18426;DHT22;9340;48.756;9.226;2023-04-25T14:56:43;13.90;99.90
18426;DHT22;9340;48.756;9.226;2023-04-25T14:59:10;13.90;99.90
18426;DHT22;9340;48.756;9.226;2023-04-25T15:01:38;13.80;99.90
18426;DHT22;9340;48.756;9.226;2023-04-25T15:04:05;13.90;99.90
18426;DHT22;9340;48.756;9.226;2023-04-25T15:06:33;13.80;99.90
18426;DHT22;9340;48.756;9.226;2023-04-25T15:09:00;13.90;99.90
18426;DHT22;9340;48.756;9.226;2023-04-25T15:11:26;14.30;99.90
18426;DHT22;9340;48.756;9.226;2023-04-25T15:13:53;14.70;99.90
18426;DHT22;9340;48.756;9.226;2023-04-25T15:16:20;15.00;99.90
18426;DHT22;9340;48.756;9.226;2023-04-25T15:18:48;15.00;99.90
18426;DHT22;9340;48.756;9.226;2023-04-25T15:21:14;14.70;99.90
18426;DHT22;9340;48.756;9.226;2023-04-25T15:23:41;14.00;99.90
18426;DHT22;9340;48.756;9.226;2023-04-25T15:26:08;13.60;99.90
18426;DHT22;9340;48.756;9.226;2023-04-25T15:28:35;13.40;99.90
18426;DHT22;9340;48.756;9.226;2023-04-25T15:31:01;13.10;99.90
18426;DHT22;9340;48.756;9.226;2023-04-25T15:33:28;12.80;99.90
18426;DHT22;9340;48.756;9.226;2023-04-25T15:35:56;12.40;99.90
18426;DHT22;9340;48.756;9.226;2023-04-25T15:38:23;12.20;99.90
18426;DHT22;9340;48.756;9.226;2023-04-25T15:40:50;12.30;99.90
18426;DHT22;9340;48.756;9.226;2023-04-25T15:43:18;12.60;99.90
18426;DHT22;9340;48.756;9.226;2023-04-25T15:45:44;12.90;99.90
18426;DHT22;9340;48.756;9.226;2023-04-25T15:48:11;12.90;99.90
18426;DHT22;9340;48.756;9.226;2023-04-25T15:50:38;12.80;99.90
18426;DHT22;9340;48.756;9.226;2023-04-25T15:53:06;12.70;99.90